createdAt,value
2023-02-06T00:00:57.554Z,0.00
2023-02-06T00:01:59.835Z,0.00
2023-02-06T00:02:57.130Z,0.00
2023-02-06T00:04:00.759Z,0.00
2023-02-06T00:04:58.840Z,0.00
2023-02-06T00:05:58.896Z,0.00
2023-02-06T00:07:00.652Z,0.00
2023-02-06T00:07:58.942Z,0.00
2023-02-06T00:09:00.259Z,0.00
2023-02-06T00:09:59.251Z,0.00
2023-02-06T00:10:58.539Z,0.00
2023-02-06T00:11:59.619Z,0.00
2023-02-06T00:12:56.669Z,0.00
2023-02-06T00:13:55.798Z,0.00
2023-02-06T00:14:56.998Z,0.00
2023-02-06T00:15:55.794Z,0.00
2023-02-06T00:16:56.143Z,0.00
2023-02-06T00:17:55.795Z,0.00
2023-02-06T00:18:55.734Z,0.00
2023-02-06T00:19:55.887Z,0.00
2023-02-06T00:20:56.688Z,0.00
2023-02-06T00:21:56.716Z,0.00
2023-02-06T00:22:55.840Z,0.00
2023-02-06T00:23:57.064Z,0.00
2023-02-06T00:24:55.679Z,0.00
2023-02-06T00:25:56.159Z,0.00
2023-02-06T00:26:55.667Z,0.00
2023-02-06T00:27:55.704Z,0.00
2023-02-06T00:28:55.719Z,0.00
2023-02-06T00:29:56.402Z,0.00
2023-02-06T00:30:56.096Z,0.00
2023-02-06T00:31:55.589Z,0.00
2023-02-06T00:32:55.822Z,0.00
2023-02-06T00:33:56.318Z,0.00
2023-02-06T00:34:55.754Z,0.00
2023-02-06T00:35:56.500Z,0.00
2023-02-06T00:36:55.962Z,0.00
2023-02-06T00:37:55.664Z,0.00
2023-02-06T00:38:55.520Z,0.00
2023-02-06T00:39:55.648Z,0.00
2023-02-06T00:40:55.549Z,0.00
2023-02-06T00:41:55.498Z,0.00
2023-02-06T00:42:55.504Z,0.00
2023-02-06T00:43:55.503Z,0.00
2023-02-06T00:44:55.457Z,0.00
2023-02-06T00:45:55.461Z,0.00
2023-02-06T00:46:55.747Z,0.00
2023-02-06T00:47:55.622Z,0.00
2023-02-06T00:48:55.482Z,0.00
2023-02-06T00:49:55.726Z,0.00
2023-02-06T00:50:55.399Z,0.00
2023-02-06T00:51:55.506Z,0.00
2023-02-06T00:52:56.157Z,0.00
2023-02-06T00:53:56.587Z,0.00
2023-02-06T00:54:55.379Z,0.00
2023-02-06T00:55:55.342Z,0.00
2023-02-06T00:56:55.499Z,0.00
2023-02-06T00:57:55.326Z,0.00
2023-02-06T00:58:55.407Z,0.00
2023-02-06T00:59:55.401Z,0.00
2023-02-06T01:00:55.665Z,0.00
2023-02-06T01:01:55.507Z,0.00
2023-02-06T01:02:55.504Z,0.00
2023-02-06T01:03:55.529Z,0.00
2023-02-06T01:04:55.531Z,0.00
2023-02-06T01:05:55.600Z,0.00
2023-02-06T01:06:55.291Z,0.00
2023-02-06T01:07:55.443Z,0.00
2023-02-06T01:08:55.368Z,0.00
2023-02-06T01:09:55.199Z,0.00
2023-02-06T01:10:55.355Z,0.00
2023-02-06T01:11:55.162Z,0.00
2023-02-06T01:12:55.176Z,0.00
2023-02-06T01:13:55.176Z,0.00
2023-02-06T01:14:55.305Z,0.00
2023-02-06T01:15:55.175Z,0.00
2023-02-06T01:16:55.123Z,0.00
2023-02-06T01:17:55.333Z,0.00
2023-02-06T01:18:55.354Z,0.00
2023-02-06T01:19:55.176Z,0.00
2023-02-06T01:20:55.082Z,0.00
2023-02-06T01:21:55.061Z,0.00
2023-02-06T01:22:55.189Z,0.00
2023-02-06T01:23:55.787Z,0.00
2023-02-06T01:24:55.311Z,0.00
2023-02-06T01:25:55.063Z,0.00
2023-02-06T01:26:55.328Z,0.00
2023-02-06T01:27:55.992Z,0.00
2023-02-06T01:28:55.192Z,0.00
2023-02-06T01:29:55.044Z,0.00
2023-02-06T01:30:55.180Z,0.00
2023-02-06T01:31:55.718Z,0.00
2023-02-06T01:32:54.943Z,0.00
2023-02-06T01:33:54.919Z,0.00
2023-02-06T01:34:55.257Z,0.00
2023-02-06T01:35:54.980Z,0.00
2023-02-06T01:36:55.915Z,0.00
2023-02-06T01:37:55.094Z,0.00
2023-02-06T01:38:54.881Z,0.00
2023-02-06T01:39:55.156Z,0.00
2023-02-06T01:40:55.157Z,0.00
2023-02-06T01:41:55.196Z,0.00
2023-02-06T01:42:54.932Z,0.00
2023-02-06T01:43:55.095Z,0.00
2023-02-06T01:44:54.829Z,0.00
2023-02-06T01:45:54.836Z,0.00
2023-02-06T01:46:54.833Z,0.00
2023-02-06T01:47:54.955Z,0.00
2023-02-06T01:48:54.779Z,0.00
2023-02-06T01:49:54.957Z,0.00
2023-02-06T01:50:55.704Z,0.00
2023-02-06T01:51:54.747Z,0.00
2023-02-06T01:52:54.733Z,0.00
2023-02-06T01:53:54.756Z,0.00
2023-02-06T01:54:54.804Z,0.00
2023-02-06T01:55:54.716Z,0.00
2023-02-06T01:56:54.863Z,0.00
2023-02-06T01:57:54.701Z,0.00
2023-02-06T01:58:54.710Z,0.00
2023-02-06T01:59:54.693Z,0.00
2023-02-06T02:00:55.324Z,0.00
2023-02-06T02:01:54.664Z,0.00
2023-02-06T02:02:54.672Z,0.00
2023-02-06T02:03:55.648Z,0.00
2023-02-06T02:04:54.840Z,0.00
2023-02-06T02:05:54.608Z,0.00
2023-02-06T02:06:54.667Z,0.00
2023-02-06T02:07:54.639Z,0.00
2023-02-06T02:08:54.593Z,0.00
2023-02-06T02:09:54.558Z,0.00
2023-02-06T02:10:54.561Z,0.00
2023-02-06T02:11:54.570Z,0.00
2023-02-06T02:12:54.567Z,0.00
2023-02-06T02:13:54.545Z,0.00
2023-02-06T02:14:54.529Z,0.00
2023-02-06T02:15:54.603Z,0.00
2023-02-06T02:16:54.599Z,0.00
2023-02-06T02:17:54.521Z,0.00
2023-02-06T02:18:54.475Z,0.00
2023-02-06T02:19:54.464Z,0.00
2023-02-06T02:20:54.505Z,0.00
2023-02-06T02:21:54.476Z,0.00
2023-02-06T02:22:54.451Z,0.00
2023-02-06T02:23:54.460Z,0.00
2023-02-06T02:24:54.529Z,0.00
2023-02-06T02:25:54.482Z,0.00
2023-02-06T02:26:54.528Z,0.00
2023-02-06T02:27:55.628Z,0.00
2023-02-06T02:28:54.469Z,0.00
2023-02-06T02:29:54.493Z,0.00
2023-02-06T02:30:54.436Z,0.00
2023-02-06T02:31:54.428Z,0.00
2023-02-06T02:32:54.423Z,0.00
2023-02-06T02:33:54.762Z,0.00
2023-02-06T02:34:54.363Z,0.00
2023-02-06T02:35:54.464Z,0.00
2023-02-06T02:36:54.359Z,0.00
2023-02-06T02:37:54.702Z,0.00
2023-02-06T02:38:54.349Z,0.00
2023-02-06T02:39:54.272Z,0.00
2023-02-06T02:40:54.263Z,0.00
2023-02-06T02:41:54.256Z,0.00
2023-02-06T02:42:54.201Z,0.00
2023-02-06T02:43:54.284Z,0.00
2023-02-06T02:44:54.319Z,0.00
2023-02-06T02:45:54.225Z,0.00
2023-02-06T02:46:54.218Z,0.00
2023-02-06T02:47:54.198Z,0.00
2023-02-06T02:48:54.175Z,0.00
2023-02-06T02:49:54.128Z,0.00
2023-02-06T02:50:54.177Z,0.00
2023-02-06T02:51:54.191Z,0.00
2023-02-06T02:52:54.141Z,0.00
2023-02-06T02:53:54.120Z,0.00
2023-02-06T02:54:55.096Z,0.00
2023-02-06T02:55:54.131Z,0.00
2023-02-06T02:56:54.238Z,0.00
2023-02-06T02:57:54.277Z,0.00
2023-02-06T02:58:54.505Z,0.00
2023-02-06T02:59:54.083Z,0.00
2023-02-06T03:00:54.484Z,0.00
2023-02-06T03:01:54.128Z,0.00
2023-02-06T03:02:54.022Z,0.00
2023-02-06T03:03:53.984Z,0.00
2023-02-06T03:04:53.975Z,0.00
2023-02-06T03:05:53.970Z,0.00
2023-02-06T03:06:53.996Z,0.00
2023-02-06T03:07:53.944Z,0.00
2023-02-06T03:08:53.970Z,0.00
2023-02-06T03:09:53.950Z,0.00
2023-02-06T03:10:53.942Z,0.00
2023-02-06T03:11:53.921Z,0.00
2023-02-06T03:12:53.939Z,0.00
2023-02-06T03:13:53.907Z,0.00
2023-02-06T03:14:53.897Z,0.00
2023-02-06T03:15:53.878Z,0.00
2023-02-06T03:16:53.938Z,0.00
2023-02-06T03:17:53.834Z,0.00
2023-02-06T03:18:53.868Z,0.00
2023-02-06T03:19:53.890Z,0.00
2023-02-06T03:20:53.855Z,0.00
2023-02-06T03:21:53.799Z,0.00
2023-02-06T03:22:53.823Z,0.00
2023-02-06T03:23:53.881Z,0.00
2023-02-06T03:24:53.779Z,0.00
2023-02-06T03:25:53.795Z,0.00
2023-02-06T03:26:53.744Z,0.00
2023-02-06T03:27:53.767Z,0.00
2023-02-06T03:28:53.721Z,0.00
2023-02-06T03:29:53.750Z,0.00
2023-02-06T03:30:53.765Z,0.00
2023-02-06T03:31:53.767Z,0.00
2023-02-06T03:32:53.679Z,0.00
2023-02-06T03:33:53.896Z,0.00
2023-02-06T03:34:53.667Z,0.00
2023-02-06T03:35:53.664Z,0.00
2023-02-06T03:36:53.643Z,0.00
2023-02-06T03:37:53.665Z,0.00
2023-02-06T03:38:53.912Z,0.00
2023-02-06T03:39:53.679Z,0.00
2023-02-06T03:40:53.611Z,0.00
2023-02-06T03:41:53.673Z,0.00
2023-02-06T03:42:54.754Z,0.00
2023-02-06T03:43:54.001Z,0.00
2023-02-06T03:44:53.661Z,0.00
2023-02-06T03:45:54.390Z,0.00
2023-02-06T03:46:53.636Z,0.00
2023-02-06T03:47:53.594Z,0.00
2023-02-06T03:48:54.047Z,0.00
2023-02-06T03:49:54.077Z,0.00
2023-02-06T03:52:51.620Z,0.00
2023-02-06T03:52:54.895Z,0.00
2023-02-06T03:53:55.097Z,0.00
2023-02-06T03:54:54.871Z,0.00
2023-02-06T03:55:54.572Z,0.00
2023-02-06T03:56:54.668Z,0.00
2023-02-06T03:57:54.672Z,0.00
2023-02-06T03:58:54.560Z,0.00
2023-02-06T03:59:55.138Z,0.00
2023-02-06T04:00:54.556Z,0.00
2023-02-06T04:01:54.654Z,0.00
2023-02-06T04:02:54.675Z,0.00
2023-02-06T04:03:54.514Z,0.00
2023-02-06T04:04:54.675Z,0.00
2023-02-06T04:05:54.607Z,0.00
2023-02-06T04:06:55.231Z,0.00
2023-02-06T04:07:54.494Z,0.00
2023-02-06T04:08:54.443Z,0.00
2023-02-06T04:09:59.956Z,0.00
2023-02-06T04:10:54.855Z,0.00
2023-02-06T04:11:54.680Z,0.00
2023-02-06T04:12:54.395Z,0.00
2023-02-06T04:13:55.341Z,0.00
2023-02-06T04:14:54.540Z,0.00
2023-02-06T04:15:54.397Z,0.00
2023-02-06T04:16:54.532Z,0.00
2023-02-06T04:18:34.180Z,0.00
2023-02-06T04:18:55.474Z,0.00
2023-02-06T04:19:54.385Z,0.00
2023-02-06T04:20:54.894Z,0.00
2023-02-06T04:21:54.340Z,0.00
2023-02-06T04:22:54.727Z,0.00
2023-02-06T04:23:54.463Z,0.00
2023-02-06T04:24:56.053Z,0.00
2023-02-06T04:27:22.347Z,0.00
2023-02-06T04:27:23.953Z,0.00
2023-02-06T04:28:24.957Z,0.00
2023-02-06T04:29:24.091Z,0.00
2023-02-06T04:30:24.969Z,0.00
2023-02-06T04:31:23.980Z,0.00
2023-02-06T04:32:28.300Z,0.00
2023-02-06T04:33:23.989Z,0.00
2023-02-06T04:34:33.795Z,0.00
2023-02-06T04:35:24.172Z,0.00
2023-02-06T04:36:41.334Z,0.00
2023-02-06T04:37:23.848Z,0.00
2023-02-06T04:38:23.881Z,0.00
2023-02-06T04:39:23.876Z,0.00
2023-02-06T04:40:23.908Z,0.00
2023-02-06T04:41:24.045Z,0.00
2023-02-06T04:42:23.880Z,0.00
2023-02-06T04:43:24.449Z,0.00
2023-02-06T04:44:58.381Z,0.00
2023-02-06T04:45:50.739Z,0.00
2023-02-06T04:47:46.653Z,0.00
2023-02-06T04:47:51.185Z,0.00
2023-02-06T04:48:50.764Z,0.00
2023-02-06T04:49:50.966Z,0.00
2023-02-06T04:50:50.334Z,0.00
2023-02-06T04:51:50.025Z,0.00
2023-02-06T04:52:49.668Z,0.00
2023-02-06T04:53:50.083Z,0.00
2023-02-06T04:54:50.296Z,0.00
2023-02-06T04:55:49.680Z,0.00
2023-02-06T04:56:49.610Z,0.00
2023-02-06T04:57:49.925Z,0.00
2023-02-06T04:58:50.134Z,0.00
2023-02-06T04:59:49.724Z,0.00
2023-02-06T05:01:03.851Z,0.00
2023-02-06T05:01:50.074Z,0.00
2023-02-06T05:02:49.825Z,0.00
2023-02-06T05:03:49.832Z,0.00
2023-02-06T05:04:52.701Z,0.00
2023-02-06T05:06:05.649Z,0.00
2023-02-06T05:06:49.651Z,0.00
2023-02-06T05:09:13.291Z,0.00
2023-02-06T05:09:19.865Z,0.00
2023-02-06T05:10:20.243Z,0.00
2023-02-06T05:12:45.544Z,0.00
2023-02-06T05:12:47.766Z,0.00
2023-02-06T05:13:48.467Z,0.00
2023-02-06T05:14:47.547Z,0.00
2023-02-06T05:15:50.963Z,0.00
2023-02-06T05:16:47.782Z,0.00
2023-02-06T05:17:47.481Z,0.00
2023-02-06T05:18:47.636Z,0.00
2023-02-06T05:19:47.463Z,0.00
2023-02-06T05:20:47.870Z,0.00
2023-02-06T05:24:26.097Z,0.00
2023-02-06T05:24:38.672Z,0.00
2023-02-06T05:25:29.962Z,0.00
2023-02-06T05:26:33.539Z,0.00
2023-02-06T05:27:35.172Z,0.00
2023-02-06T05:29:56.145Z,0.00
2023-02-06T05:29:58.633Z,0.00
2023-02-06T05:31:28.948Z,0.00
2023-02-06T05:33:28.363Z,0.00
2023-02-06T05:33:30.776Z,0.00
2023-02-06T05:34:31.252Z,0.00
2023-02-06T05:35:43.911Z,0.00
2023-02-06T05:37:59.085Z,0.00
2023-02-06T05:38:25.990Z,0.00
2023-02-06T05:39:33.780Z,0.00
2023-02-06T05:40:22.527Z,0.00
2023-02-06T05:41:31.406Z,0.00
2023-02-06T05:45:03.405Z,0.00
2023-02-06T05:46:53.406Z,0.00
2023-02-06T05:46:55.125Z,0.00
2023-02-06T05:47:56.397Z,0.00
2023-02-06T05:48:58.163Z,0.00
2023-02-06T05:49:55.281Z,0.00
2023-02-06T05:52:37.596Z,0.00
2023-02-06T05:52:41.049Z,0.00
2023-02-06T05:53:40.480Z,0.00
2023-02-06T05:54:40.865Z,0.00
2023-02-06T05:55:40.857Z,0.00
2023-02-06T05:56:40.730Z,0.00
2023-02-06T05:57:40.849Z,0.00
2023-02-06T05:58:40.770Z,0.00
2023-02-06T05:59:40.542Z,0.00
2023-02-06T06:00:40.801Z,0.00
2023-02-06T06:01:40.713Z,0.00
2023-02-06T06:02:40.844Z,0.00
2023-02-06T06:03:40.646Z,0.00
2023-02-06T06:04:40.670Z,0.00
2023-02-06T06:05:40.552Z,0.00
2023-02-06T06:06:41.399Z,0.00
2023-02-06T06:07:40.758Z,0.00
2023-02-06T06:08:40.381Z,0.00
2023-02-06T06:09:40.437Z,0.00
2023-02-06T06:12:01.962Z,0.00
2023-02-06T06:12:04.091Z,0.00
2023-02-06T06:13:04.094Z,0.00
2023-02-06T06:14:03.785Z,0.00
2023-02-06T06:15:03.850Z,0.00
2023-02-06T06:16:03.549Z,0.00
2023-02-06T06:17:03.552Z,0.00
2023-02-06T06:18:03.786Z,0.00
2023-02-06T06:19:04.725Z,0.00
2023-02-06T06:22:12.775Z,0.00
2023-02-06T06:22:17.019Z,0.00
2023-02-06T06:23:16.616Z,0.00
2023-02-06T06:24:16.354Z,4.00
2023-02-06T06:25:16.708Z,4.00
2023-02-06T06:26:17.082Z,0.00
2023-02-06T06:27:16.668Z,4.00
2023-02-06T06:28:16.928Z,4.00
2023-02-06T06:29:16.807Z,8.00
2023-02-06T06:30:16.842Z,8.00
2023-02-06T06:31:16.422Z,8.00
2023-02-06T06:32:16.831Z,8.00
2023-02-06T06:33:19.395Z,12.00
2023-02-06T06:34:17.170Z,16.00
2023-02-06T06:35:17.032Z,16.00
2023-02-06T06:36:16.839Z,20.00
2023-02-06T06:37:17.023Z,24.00
2023-02-06T06:38:16.363Z,24.00
2023-02-06T06:39:16.386Z,28.00
2023-02-06T06:40:32.709Z,36.00
2023-02-06T06:42:56.325Z,40.00
2023-02-06T06:43:00.020Z,64.00
2023-02-06T06:44:11.878Z,68.00
2023-02-06T06:44:59.764Z,72.00
2023-02-06T06:45:59.299Z,80.00
2023-02-06T06:46:59.602Z,88.00
2023-02-06T06:47:59.267Z,96.00
2023-02-06T06:48:59.209Z,104.00
2023-02-06T06:49:59.119Z,108.00
2023-02-06T06:50:59.392Z,112.00
2023-02-06T06:51:59.552Z,116.00
2023-02-06T06:52:59.301Z,120.00
2023-02-06T06:53:59.452Z,128.00
2023-02-06T06:56:22.626Z,136.00
2023-02-06T06:56:36.834Z,152.00
2023-02-06T06:59:21.836Z,152.00
2023-02-06T06:59:25.894Z,164.00
2023-02-06T07:00:25.595Z,188.00
2023-02-06T07:01:27.044Z,228.00
2023-02-06T07:02:25.512Z,248.00
2023-02-06T07:03:25.029Z,264.00
2023-02-06T07:04:25.002Z,280.00
2023-02-06T07:05:24.988Z,280.00
2023-02-06T07:06:25.016Z,280.00
2023-02-06T07:07:25.057Z,296.00
2023-02-06T07:08:24.924Z,320.00
2023-02-06T07:09:24.942Z,324.00
2023-02-06T07:10:24.946Z,332.00
2023-02-06T07:11:24.933Z,360.00
2023-02-06T07:12:24.987Z,396.00
2023-02-06T07:13:24.875Z,420.00
2023-02-06T07:14:24.893Z,428.00
2023-02-06T07:15:24.921Z,428.00
2023-02-06T07:16:24.941Z,440.00
2023-02-06T07:17:24.845Z,472.00
2023-02-06T07:18:24.849Z,520.00
2023-02-06T07:19:24.829Z,572.00
2023-02-06T07:20:24.824Z,624.00
2023-02-06T07:21:24.802Z,632.00
2023-02-06T07:22:24.810Z,632.00
2023-02-06T07:23:24.805Z,684.00
2023-02-06T07:24:25.303Z,688.00
2023-02-06T07:25:24.780Z,724.00
2023-02-06T07:26:24.757Z,860.00
2023-02-06T07:27:24.759Z,948.00
2023-02-06T07:28:24.760Z,1004.00
2023-02-06T07:29:24.771Z,984.00
2023-02-06T07:30:24.742Z,928.00
2023-02-06T07:31:24.753Z,944.00
2023-02-06T07:32:24.707Z,1024.00
2023-02-06T07:33:24.718Z,972.00
2023-02-06T07:34:24.680Z,956.00
2023-02-06T07:35:24.667Z,968.00
2023-02-06T07:36:24.674Z,1024.00
2023-02-06T07:37:24.650Z,1224.00
2023-02-06T07:38:24.674Z,1456.00
2023-02-06T07:39:24.579Z,1500.00
2023-02-06T07:40:26.253Z,1660.00
2023-02-06T07:41:24.571Z,1888.00
2023-02-06T07:42:24.556Z,2028.00
2023-02-06T07:43:24.611Z,2344.00
2023-02-06T07:44:24.586Z,2932.00
2023-02-06T07:45:24.635Z,3480.00
2023-02-06T07:46:24.600Z,3704.00
2023-02-06T07:47:24.543Z,3552.00
2023-02-06T07:48:24.560Z,3536.00
2023-02-06T07:49:24.526Z,2912.00
2023-02-06T07:50:24.490Z,2684.00
2023-02-06T07:51:24.506Z,2760.00
2023-02-06T07:52:25.298Z,2572.00
2023-02-06T07:53:24.483Z,2404.00
2023-02-06T07:54:24.486Z,2628.00
2023-02-06T07:55:24.457Z,2876.00
2023-02-06T07:56:24.428Z,3064.00
2023-02-06T07:57:24.411Z,3448.00
2023-02-06T07:58:25.364Z,2204.00
2023-02-06T07:59:24.469Z,2260.00
2023-02-06T08:00:24.463Z,2676.00
2023-02-06T08:01:24.521Z,3044.00
2023-02-06T08:02:26.857Z,3184.00
2023-02-06T08:03:25.294Z,2648.00
2023-02-06T08:04:24.387Z,2168.00
2023-02-06T08:05:24.424Z,2048.00
2023-02-06T08:06:24.580Z,2172.00
2023-02-06T08:07:25.324Z,2352.00
2023-02-06T08:08:24.537Z,2460.00
2023-02-06T08:09:24.308Z,2460.00
2023-02-06T08:10:24.390Z,2456.00
2023-02-06T08:11:29.883Z,2556.00
2023-02-06T08:12:24.467Z,2632.00
2023-02-06T08:13:24.293Z,2460.00
2023-02-06T08:14:34.446Z,2524.00
2023-02-06T08:15:24.208Z,2964.00
2023-02-06T08:16:24.259Z,3768.00
2023-02-06T08:17:24.247Z,4384.00
2023-02-06T08:19:46.354Z,4576.00
2023-02-06T08:19:52.971Z,4996.00
2023-02-06T08:20:53.769Z,5260.00
2023-02-06T08:21:52.947Z,5300.00
2023-02-06T08:22:53.791Z,6072.00
2023-02-06T08:24:28.928Z,7240.00
2023-02-06T08:24:52.741Z,7300.00
2023-02-06T08:25:52.780Z,8648.00
2023-02-06T08:26:52.701Z,7028.00
2023-02-06T08:27:52.756Z,7004.00
2023-02-06T08:28:52.703Z,7972.00
2023-02-06T08:29:53.017Z,7400.00
2023-02-06T08:30:52.887Z,7516.00
2023-02-06T08:31:52.736Z,7472.00
2023-02-06T08:32:52.699Z,7636.00
2023-02-06T08:33:53.402Z,7632.00
2023-02-06T08:34:52.682Z,7548.00
2023-02-06T08:35:52.629Z,7824.00
2023-02-06T08:36:52.704Z,7320.00
2023-02-06T08:37:52.740Z,6920.00
2023-02-06T08:38:52.619Z,8664.00
2023-02-06T08:39:52.610Z,8276.00
2023-02-06T08:40:52.626Z,6924.00
2023-02-06T08:41:52.598Z,6916.00
2023-02-06T08:42:52.576Z,7488.00
2023-02-06T08:43:52.569Z,7920.00
2023-02-06T08:44:52.559Z,9008.00
2023-02-06T08:45:52.558Z,9676.00
2023-02-06T08:47:04.683Z,9188.00
2023-02-06T08:47:53.537Z,8480.00
2023-02-06T08:48:52.494Z,9892.00
2023-02-06T08:49:52.513Z,12308.00
2023-02-06T08:50:52.492Z,30464.00
2023-02-06T08:51:52.523Z,20096.00
2023-02-06T08:52:52.471Z,9544.00
2023-02-06T08:53:52.546Z,10584.00
2023-02-06T08:54:52.466Z,11360.00
2023-02-06T08:55:53.862Z,30432.00
2023-02-06T08:56:53.058Z,19584.00
2023-02-06T08:57:52.658Z,11656.00
2023-02-06T08:58:52.355Z,8828.00
2023-02-06T08:59:52.356Z,7508.00
2023-02-06T09:00:52.400Z,7420.00
2023-02-06T09:01:53.439Z,7092.00
2023-02-06T09:02:52.339Z,6956.00
2023-02-06T09:03:52.860Z,6024.00
2023-02-06T09:04:54.003Z,6928.00
2023-02-06T09:05:57.587Z,8924.00
2023-02-06T09:06:53.935Z,10680.00
2023-02-06T09:07:53.911Z,9936.00
2023-02-06T09:08:55.599Z,7552.00
2023-02-06T09:09:53.915Z,13908.00
2023-02-06T09:10:53.731Z,23808.00
2023-02-06T09:11:53.217Z,11740.00
2023-02-06T09:12:54.564Z,23520.00
2023-02-06T09:13:52.575Z,31936.00
2023-02-06T09:14:52.858Z,13788.00
2023-02-06T09:15:54.564Z,15324.00
2023-02-06T09:16:52.457Z,14004.00
2023-02-06T09:17:52.153Z,16992.00
2023-02-06T09:18:54.020Z,14648.00
2023-02-06T09:19:53.986Z,17824.00
2023-02-06T09:20:52.106Z,14440.00
2023-02-06T09:21:53.322Z,26176.00
2023-02-06T09:22:52.208Z,13976.00
2023-02-06T09:23:52.744Z,13020.00
2023-02-06T09:24:52.214Z,14436.00
2023-02-06T09:25:54.772Z,26080.00
2023-02-06T09:26:59.930Z,18304.00
2023-02-06T09:27:55.666Z,20224.00
2023-02-06T09:28:52.375Z,24064.00
2023-02-06T09:29:53.035Z,52672.00
2023-02-06T09:30:53.062Z,19872.00
2023-02-06T09:31:53.446Z,54720.00
2023-02-06T09:32:53.322Z,16672.00
2023-02-06T09:33:53.427Z,19136.00
2023-02-06T09:34:53.122Z,19360.00
2023-02-06T09:35:53.911Z,23616.00
2023-02-06T09:36:52.639Z,13256.00
2023-02-06T09:37:51.942Z,14804.00
2023-02-06T09:39:24.366Z,12460.00
2023-02-06T09:39:53.489Z,15304.00
2023-02-06T09:40:51.952Z,10108.00
2023-02-06T09:41:52.263Z,10224.00
2023-02-06T09:42:53.712Z,10868.00
2023-02-06T09:43:52.430Z,11080.00
2023-02-06T09:44:52.322Z,11584.00
2023-02-06T09:45:51.905Z,20512.00
2023-02-06T09:46:52.236Z,11812.00
2023-02-06T09:47:52.890Z,31744.00
2023-02-06T09:48:52.064Z,11292.00
2023-02-06T09:49:52.424Z,12748.00
2023-02-06T09:50:52.172Z,10932.00
2023-02-06T09:51:51.919Z,11048.00
2023-02-06T09:52:53.517Z,11564.00
2023-02-06T09:53:52.541Z,11132.00
2023-02-06T09:54:53.225Z,12192.00
2023-02-06T09:55:52.566Z,15040.00
2023-02-06T09:56:52.634Z,10936.00
2023-02-06T09:57:53.426Z,11280.00
2023-02-06T09:58:54.997Z,15032.00
2023-02-06T09:59:53.498Z,15972.00
2023-02-06T10:00:53.208Z,14948.00
2023-02-06T10:01:52.630Z,13380.00
2023-02-06T10:02:53.327Z,18240.00
2023-02-06T10:03:52.653Z,18912.00
2023-02-06T10:04:52.293Z,18944.00
2023-02-06T10:05:53.535Z,15672.00
2023-02-06T10:06:53.552Z,16112.00
2023-02-06T10:07:51.820Z,14724.00
2023-02-06T10:08:51.817Z,17728.00
2023-02-06T10:09:52.601Z,17120.00
2023-02-06T10:10:52.387Z,15072.00
2023-02-06T10:11:51.560Z,19072.00
2023-02-06T10:12:52.485Z,17312.00
2023-02-06T10:13:54.167Z,31616.00
2023-02-06T10:14:51.829Z,33312.00
2023-02-06T10:15:51.707Z,51424.00
2023-02-06T10:16:51.547Z,93952.00
2023-02-06T10:17:51.508Z,94976.00
2023-02-06T10:18:51.509Z,90368.00
2023-02-06T10:19:51.564Z,90912.00
2023-02-06T10:20:51.487Z,73056.00
2023-02-06T10:21:51.476Z,81472.00
2023-02-06T10:22:51.600Z,81888.00
2023-02-06T10:23:51.517Z,35424.00
2023-02-06T10:24:51.392Z,21408.00
2023-02-06T10:25:51.433Z,16672.00
2023-02-06T10:26:51.434Z,17760.00
2023-02-06T10:27:51.506Z,86944.00
2023-02-06T10:28:51.403Z,43168.00
2023-02-06T10:29:51.390Z,44512.00
2023-02-06T10:30:51.407Z,13216.00
2023-02-06T10:31:51.339Z,83104.00
2023-02-06T10:32:51.332Z,13844.00
2023-02-06T10:33:51.296Z,27648.00
2023-02-06T10:34:51.352Z,68512.00
2023-02-06T10:35:51.329Z,87840.00
2023-02-06T10:36:52.240Z,90560.00
2023-02-06T10:37:51.262Z,81760.00
2023-02-06T10:38:51.286Z,56640.00
2023-02-06T10:39:51.260Z,29600.00
2023-02-06T10:40:51.243Z,32832.00
2023-02-06T10:41:51.234Z,40992.00
2023-02-06T10:42:51.241Z,37664.00
2023-02-06T10:43:51.289Z,17344.00
2023-02-06T10:44:51.790Z,40192.00
2023-02-06T10:45:52.705Z,21248.00
2023-02-06T10:46:51.188Z,32000.00
2023-02-06T10:47:51.160Z,32928.00
2023-02-06T10:48:53.419Z,45920.00
2023-02-06T10:49:51.274Z,59456.00
2023-02-06T10:50:51.160Z,63424.00
2023-02-06T10:51:51.149Z,19040.00
2023-02-06T10:52:51.158Z,16380.00
2023-02-06T10:53:51.111Z,53408.00
2023-02-06T10:54:51.132Z,35232.00
2023-02-06T10:55:51.311Z,46656.00
2023-02-06T10:56:51.085Z,47904.00
2023-02-06T10:57:51.077Z,89440.00
2023-02-06T10:58:51.084Z,72064.00
2023-02-06T10:59:53.572Z,76352.00
2023-02-06T11:00:51.166Z,16820.00
2023-02-06T11:01:51.077Z,78656.00
2023-02-06T11:03:06.226Z,62560.00
2023-02-06T11:03:52.974Z,21952.00
2023-02-06T11:04:50.960Z,48960.00
2023-02-06T11:05:50.978Z,81184.00
2023-02-06T11:06:50.950Z,90304.00
2023-02-06T11:07:50.972Z,85408.00
2023-02-06T11:08:50.917Z,69504.00
2023-02-06T11:09:50.949Z,61344.00
2023-02-06T11:10:50.978Z,69568.00
2023-02-06T11:11:50.889Z,68480.00
2023-02-06T11:12:50.896Z,62496.00
2023-02-06T11:13:50.866Z,64256.00
2023-02-06T11:14:50.869Z,66240.00
2023-02-06T11:15:50.884Z,66368.00
2023-02-06T11:16:50.845Z,36352.00
2023-02-06T11:17:50.858Z,14016.00
2023-02-06T11:18:50.805Z,14032.00
2023-02-06T11:19:50.894Z,37600.00
2023-02-06T11:20:50.857Z,73120.00
2023-02-06T11:21:50.854Z,83552.00
2023-02-06T11:22:53.440Z,80960.00
2023-02-06T11:23:51.772Z,74496.00
2023-02-06T11:24:50.886Z,59776.00
2023-02-06T11:25:50.766Z,65184.00
2023-02-06T11:26:50.757Z,71872.00
2023-02-06T11:27:50.865Z,57056.00
2023-02-06T11:28:50.733Z,49280.00
2023-02-06T11:29:52.183Z,71008.00
2023-02-06T11:30:52.672Z,56608.00
2023-02-06T11:31:50.700Z,40928.00
2023-02-06T11:33:03.713Z,32448.00
2023-02-06T11:33:52.684Z,34208.00
2023-02-06T11:34:50.753Z,30304.00
2023-02-06T11:35:50.692Z,28416.00
2023-02-06T11:36:50.642Z,36256.00
2023-02-06T11:37:50.646Z,54624.00
2023-02-06T11:38:50.605Z,76672.00
2023-02-06T11:39:50.566Z,78272.00
2023-02-06T11:40:50.622Z,66112.00
2023-02-06T11:41:50.573Z,52896.00
2023-02-06T11:42:50.569Z,67264.00
2023-02-06T11:43:50.584Z,79904.00
2023-02-06T11:44:50.521Z,81792.00
2023-02-06T11:45:50.544Z,76896.00
2023-02-06T11:46:50.514Z,77248.00
2023-02-06T11:47:50.500Z,78944.00
2023-02-06T11:48:50.514Z,85056.00
2023-02-06T11:49:58.479Z,87744.00
2023-02-06T11:50:50.626Z,79872.00
2023-02-06T11:51:50.543Z,75072.00
2023-02-06T11:52:50.582Z,69504.00
2023-02-06T11:53:50.546Z,67584.00
2023-02-06T11:54:50.487Z,75904.00
2023-02-06T11:55:50.427Z,78592.00
2023-02-06T11:56:50.447Z,78592.00
2023-02-06T11:57:50.451Z,75456.00
2023-02-06T11:58:50.423Z,73184.00
2023-02-06T11:59:50.429Z,77376.00
2023-02-06T12:00:50.403Z,77408.00
2023-02-06T12:01:50.423Z,73024.00
2023-02-06T12:02:50.408Z,48096.00
2023-02-06T12:03:50.385Z,41120.00
2023-02-06T12:04:50.397Z,44064.00
2023-02-06T12:05:50.378Z,66784.00
2023-02-06T12:06:50.334Z,67008.00
2023-02-06T12:07:50.340Z,64608.00
2023-02-06T12:08:50.342Z,66624.00
2023-02-06T12:09:50.298Z,68064.00
2023-02-06T12:10:50.344Z,63040.00
2023-02-06T12:11:50.261Z,66208.00
2023-02-06T12:12:50.268Z,73184.00
2023-02-06T12:13:50.240Z,72544.00
2023-02-06T12:14:50.242Z,58656.00
2023-02-06T12:15:50.683Z,52480.00
2023-02-06T12:16:50.336Z,29120.00
2023-02-06T12:17:50.205Z,35296.00
2023-02-06T12:18:50.215Z,45056.00
2023-02-06T12:19:50.157Z,60896.00
2023-02-06T12:20:50.226Z,66688.00
2023-02-06T12:21:50.221Z,68672.00
2023-02-06T12:22:50.129Z,65376.00
2023-02-06T12:23:50.143Z,57728.00
2023-02-06T12:24:50.133Z,59744.00
2023-02-06T12:25:50.096Z,60576.00
2023-02-06T12:26:50.097Z,65504.00
2023-02-06T12:27:50.124Z,65216.00
2023-02-06T12:28:50.089Z,62528.00
2023-02-06T12:29:50.065Z,65280.00
2023-02-06T12:30:50.129Z,60096.00
2023-02-06T12:31:50.108Z,52544.00
2023-02-06T12:32:50.011Z,35456.00
2023-02-06T12:33:51.707Z,27392.00
2023-02-06T12:34:49.997Z,39648.00
2023-02-06T12:35:49.950Z,45088.00
2023-02-06T12:36:49.951Z,48448.00
2023-02-06T12:37:49.977Z,46496.00
2023-02-06T12:38:49.965Z,54432.00
2023-02-06T12:39:49.910Z,56192.00
2023-02-06T12:40:49.905Z,63328.00
2023-02-06T12:41:49.882Z,66016.00
2023-02-06T12:42:49.900Z,68832.00
2023-02-06T12:43:49.869Z,68768.00
2023-02-06T12:44:49.899Z,61216.00
2023-02-06T12:45:49.916Z,60672.00
2023-02-06T12:46:49.828Z,37632.00
2023-02-06T12:47:49.853Z,44448.00
2023-02-06T12:48:49.832Z,58144.00
2023-02-06T12:49:49.798Z,64256.00